Time;durP1;ratioP1;P1;durP2;ratioP2;P2;SDS_P1;SDS_P2;PMS_P1;PMS_P2;Temp;Humidity;BMP_temperature;BMP_pressure;BME280_temperature;BME280_humidity;BME280_pressure;Samples;Min_cycle;Max_cycle;Signal;HPM_P1;HPM_P2
2021/07/31 00:01:08;;;;;;;5.93;4.85;;;24.60;66.10;;;;;;5056497;28;20111;-45
2021/07/31 00:03:38;;;;;;;6.47;4.93;;;24.60;66.20;;;;;;5075933;28;20093;-45
2021/07/31 00:06:05;;;;;;;5.53;4.70;;;24.60;66.20;;;;;;5075308;28;20033;-46
2021/07/31 00:08:31;;;;;;;7.18;4.75;;;24.60;66.10;;;;;;5073331;28;20028;-45
2021/07/31 00:10:57;;;;;;;8.45;5.00;;;24.60;65.90;;;;;;5072088;28;20070;-50
2021/07/31 00:13:24;;;;;;;5.70;4.82;;;24.60;66.20;;;;;;5074808;28;20104;-45
2021/07/31 00:15:49;;;;;;;5.00;4.22;;;24.60;66.00;;;;;;5075568;28;20465;-45
2021/07/31 00:18:15;;;;;;;6.07;4.88;;;24.50;65.90;;;;;;5074794;28;20025;-54
2021/07/31 00:20:41;;;;;;;5.88;4.63;;;24.50;65.70;;;;;;5075095;28;20021;-45
2021/07/31 00:23:07;;;;;;;5.43;4.65;;;24.60;65.80;;;;;;5074838;28;20032;-45
2021/07/31 00:25:32;;;;;;;6.75;5.00;;;24.50;65.70;;;;;;5072822;28;20531;-46
2021/07/31 00:27:58;;;;;;;5.43;4.35;;;24.60;65.40;;;;;;5075263;28;20032;-46
2021/07/31 00:30:26;;;;;;;6.55;5.18;;;24.60;65.70;;;;;;5073631;28;20033;-46
2021/07/31 00:32:52;;;;;;;7.05;5.05;;;24.60;66.00;;;;;;5073251;28;20485;-46
2021/07/31 00:35:18;;;;;;;5.10;4.20;;;24.60;65.90;;;;;;5054027;28;20502;-55
2021/07/31 00:37:44;;;;;;;7.10;4.70;;;24.50;65.80;;;;;;5055207;28;20040;-47
2021/07/31 00:40:10;;;;;;;6.45;4.82;;;24.50;65.40;;;;;;5074609;28;20021;-46
2021/07/31 00:42:42;;;;;;;6.10;4.55;;;24.50;65.50;;;;;;5073748;28;20051;-45
2021/07/31 00:45:12;;;;;;;6.32;4.20;;;24.50;65.40;;;;;;5074715;28;20036;-46
2021/07/31 00:47:39;;;;;;;20.48;5.15;;;24.50;65.30;;;;;;5074127;28;20108;-45
2021/07/31 00:50:05;;;;;;;7.00;4.78;;;24.50;65.90;;;;;;5065183;28;20414;-45
2021/07/31 00:52:32;;;;;;;8.65;4.85;;;24.50;65.50;;;;;;5053366;28;20037;-46
2021/07/31 00:55:00;;;;;;;5.32;4.40;;;24.50;65.30;;;;;;5061698;28;20036;-46
2021/07/31 00:57:26;;;;;;;5.57;4.03;;;24.50;65.90;;;;;;5073872;28;20025;-47
2021/07/31 00:59:52;;;;;;;5.10;4.35;;;24.50;65.40;;;;;;5074534;28;20490;-46
2021/07/31 01:02:18;;;;;;;5.28;4.38;;;24.50;65.30;;;;;;5066002;28;20029;-55
2021/07/31 01:04:44;;;;;;;5.22;4.20;;;24.50;65.10;;;;;;5054559;28;20378;-47
2021/07/31 01:07:10;;;;;;;4.05;3.38;;;24.50;65.20;;;;;;5054039;28;20115;-47
2021/07/31 01:09:37;;;;;;;5.20;4.05;;;24.50;64.90;;;;;;5054890;28;20029;-46
2021/07/31 01:12:03;;;;;;;4.75;4.03;;;24.50;65.00;;;;;;5062158;28;20036;-46
2021/07/31 01:14:29;;;;;;;5.68;3.45;;;24.50;64.80;;;;;;5073292;28;20037;-46
2021/07/31 01:16:55;;;;;;;5.82;4.30;;;24.50;64.90;;;;;;5072979;28;20028;-46
2021/07/31 01:19:21;;;;;;;4.47;3.85;;;24.50;64.90;;;;;;5062484;28;20062;-47
2021/07/31 01:21:47;;;;;;;5.22;3.58;;;24.50;64.50;;;;;;5068235;28;20122;-46
2021/07/31 01:24:14;;;;;;;3.85;3.45;;;24.50;64.50;;;;;;5056545;28;20044;-46
2021/07/31 01:26:45;;;;;;;4.38;3.22;;;24.50;64.20;;;;;;5073261;28;20024;-46
2021/07/31 01:29:13;;;;;;;3.25;2.85;;;24.50;64.20;;;;;;5074030;28;20424;-46
2021/07/31 01:31:40;;;;;;;4.40;3.10;;;24.50;64.00;;;;;;5073147;28;20029;-46
2021/07/31 01:34:06;;;;;;;4.28;3.17;;;24.50;63.70;;;;;;5062993;28;20031;-46
2021/07/31 01:36:32;;;;;;;3.50;3.10;;;24.50;63.60;;;;;;5053202;28;20107;-46
2021/07/31 01:38:58;;;;;;;6.53;4.15;;;24.50;63.40;;;;;;5054022;28;20029;-46
2021/07/31 01:41:24;;;;;;;5.00;2.88;;;24.50;63.10;;;;;;5063520;28;20063;-46
2021/07/31 01:43:51;;;;;;;3.58;3.03;;;24.50;63.10;;;;;;5065150;28;20068;-47
2021/07/31 01:46:17;;;;;;;5.18;2.95;;;24.50;62.90;;;;;;5053707;28;20386;-51
2021/07/31 01:48:42;;;;;;;5.28;2.83;;;24.50;62.70;;;;;;5053228;28;20063;-48
2021/07/31 01:51:08;;;;;;;4.50;2.80;;;24.50;63.40;;;;;;5053593;28;20056;-50
2021/07/31 01:53:34;;;;;;;4.55;2.63;;;24.50;62.60;;;;;;5058568;28;20457;-47
2021/07/31 01:56:00;;;;;;;3.63;2.50;;;24.50;62.80;;;;;;5073628;28;20082;-49
2021/07/31 01:58:25;;;;;;;3.30;2.38;;;24.50;62.40;;;;;;5071615;28;20082;-47
2021/07/31 02:00:55;;;;;;;4.85;2.58;;;24.40;62.60;;;;;;5073734;28;20048;-46
2021/07/31 02:03:21;;;;;;;2.22;1.80;;;24.50;61.50;;;;;;5056219;28;20031;-56
2021/07/31 02:05:47;;;;;;;4.18;2.40;;;24.50;62.40;;;;;;5073436;28;20052;-46
2021/07/31 02:08:13;;;;;;;3.45;2.63;;;24.50;61.80;;;;;;5073213;28;20079;-46
2021/07/31 02:10:39;;;;;;;2.72;2.20;;;24.50;61.80;;;;;;5053715;28;20049;-47
2021/07/31 02:13:04;;;;;;;2.80;2.10;;;24.50;61.00;;;;;;5053653;28;20036;-46
2021/07/31 02:15:30;;;;;;;2.65;1.83;;;24.50;60.20;;;;;;5072551;28;20036;-46
2021/07/31 02:17:56;;;;;;;2.78;1.92;;;24.30;60.70;;;;;;5073129;28;20373;-46
2021/07/31 02:20:22;;;;;;;3.03;2.05;;;24.20;60.60;;;;;;5072406;28;20029;-54
2021/07/31 02:22:49;;;;;;;4.65;1.83;;;24.20;60.00;;;;;;5072474;28;20025;-46
2021/07/31 02:25:15;;;;;;;2.47;1.80;;;24.20;59.40;;;;;;5054006;28;20037;-45
2021/07/31 02:27:40;;;;;;;3.20;1.88;;;24.20;58.60;;;;;;5052270;28;20021;-45
2021/07/31 02:30:06;;;;;;;4.60;2.15;;;24.20;59.10;;;;;;5053089;28;20377;-45
2021/07/31 02:32:32;;;;;;;5.07;1.70;;;24.20;58.10;;;;;;5051710;28;20025;-46
2021/07/31 02:34:58;;;;;;;3.72;1.67;;;24.20;58.40;;;;;;5054145;28;20450;-45
2021/07/31 02:37:24;;;;;;;4.63;2.55;;;24.20;58.00;;;;;;5052281;28;20104;-46
2021/07/31 02:39:49;;;;;;;5.18;1.60;;;24.30;57.80;;;;;;5052874;28;20525;-46
2021/07/31 02:42:16;;;;;;;4.45;1.70;;;24.30;56.80;;;;;;5053075;28;20025;-46
2021/07/31 02:44:41;;;;;;;3.10;1.75;;;24.30;57.10;;;;;;5065096;28;20102;-45
2021/07/31 02:47:07;;;;;;;4.50;1.63;;;24.30;56.50;;;;;;5072721;28;20454;-46
2021/07/31 02:49:33;;;;;;;5.50;1.58;;;24.30;56.80;;;;;;5071540;28;20390;-46
2021/07/31 02:51:59;;;;;;;3.92;1.55;;;24.40;56.80;;;;;;5054666;28;20036;-46
2021/07/31 02:54:25;;;;;;;4.90;1.70;;;24.40;56.50;;;;;;5031313;28;20037;-46
2021/07/31 02:56:50;;;;;;;3.03;1.73;;;24.40;56.50;;;;;;5040117;28;20119;-46
2021/07/31 02:59:16;;;;;;;2.80;1.50;;;24.30;57.30;;;;;;5066972;28;20064;-46
2021/07/31 03:01:41;;;;;;;3.97;1.60;;;24.30;56.70;;;;;;5071527;28;20060;-46
2021/07/31 03:04:07;;;;;;;2.08;1.40;;;24.30;56.70;;;;;;5063250;28;20036;-46
2021/07/31 03:06:33;;;;;;;3.20;1.42;;;24.30;56.50;;;;;;5051604;28;20107;-46
2021/07/31 03:08:58;;;;;;;3.33;1.30;;;24.40;56.30;;;;;;5062398;28;20081;-46
2021/07/31 03:11:24;;;;;;;4.43;1.70;;;24.30;56.30;;;;;;5051531;28;20418;-54
2021/07/31 03:13:50;;;;;;;4.60;1.83;;;24.30;56.20;;;;;;5064966;28;20650;-46
2021/07/31 03:16:15;;;;;;;8.05;1.92;;;24.40;56.10;;;;;;5052175;28;20100;-46
2021/07/31 03:18:42;;;;;;;3.60;1.55;;;24.30;56.20;;;;;;5063375;28;20021;-46
2021/07/31 03:21:10;;;;;;;3.10;1.95;;;24.40;56.20;;;;;;5072167;28;20031;-46
2021/07/31 03:23:36;;;;;;;3.70;2.55;;;24.30;56.20;;;;;;5070982;28;20540;-47
2021/07/31 03:26:02;;;;;;;6.05;2.00;;;24.30;56.10;;;;;;5071925;28;20150;-46
2021/07/31 03:28:28;;;;;;;4.20;1.73;;;24.30;56.40;;;;;;5062489;28;20154;-47
2021/07/31 03:30:55;;;;;;;2.75;1.75;;;24.30;56.20;;;;;;5052037;28;20112;-46
2021/07/31 03:33:21;;;;;;;4.50;1.77;;;24.30;56.10;;;;;;5050958;28;20370;-55
2021/07/31 03:35:47;;;;;;;2.83;1.73;;;24.30;56.30;;;;;;5051088;28;20059;-46
2021/07/31 03:38:12;;;;;;;5.25;1.80;;;24.30;56.30;;;;;;5054636;28;20450;-47
2021/07/31 03:40:38;;;;;;;3.38;1.75;;;24.30;56.60;;;;;;5070866;28;20428;-46
2021/07/31 03:43:04;;;;;;;3.03;1.90;;;24.30;56.40;;;;;;5071628;28;20078;-46
2021/07/31 03:45:30;;;;;;;2.33;1.67;;;24.30;56.30;;;;;;5052654;28;20025;-46
2021/07/31 03:47:55;;;;;;;5.13;1.98;;;24.30;56.20;;;;;;5051727;28;20448;-46
2021/07/31 03:50:21;;;;;;;3.95;1.80;;;24.30;56.40;;;;;;5071397;28;20036;-53
2021/07/31 03:52:47;;;;;;;4.35;1.50;;;24.30;56.30;;;;;;5071156;28;20435;-46
2021/07/31 03:55:13;;;;;;;5.15;2.10;;;24.30;56.30;;;;;;5055716;28;20040;-46
2021/07/31 03:57:39;;;;;;;2.25;1.52;;;24.30;56.40;;;;;;5050425;28;20120;-45
2021/07/31 04:00:06;;;;;;;4.32;1.50;;;24.30;56.10;;;;;;5068922;28;20127;-46
2021/07/31 04:02:33;;;;;;;4.05;1.60;;;24.30;56.00;;;;;;5071145;28;20032;-46
2021/07/31 04:04:59;;;;;;;3.63;1.52;;;24.30;55.80;;;;;;5071127;28;20401;-46
2021/07/31 04:07:25;;;;;;;2.90;1.20;;;24.30;55.70;;;;;;5071208;28;20436;-55
2021/07/31 04:09:51;;;;;;;6.05;1.60;;;24.30;56.40;;;;;;5055290;28;20033;-46
2021/07/31 04:12:17;;;;;;;4.47;1.65;;;24.30;55.50;;;;;;5051342;28;20389;-46
2021/07/31 04:14:42;;;;;;;3.20;1.48;;;24.30;55.40;;;;;;5050410;28;20032;-46
2021/07/31 04:17:08;;;;;;;3.28;1.50;;;24.30;55.30;;;;;;5051357;28;20049;-46
2021/07/31 04:19:34;;;;;;;5.50;1.30;;;24.30;55.10;;;;;;5060676;28;20526;-46
2021/07/31 04:22:00;;;;;;;7.07;1.70;;;24.30;54.90;;;;;;5067905;28;20025;-51
2021/07/31 04:24:26;;;;;;;3.38;1.42;;;24.30;54.90;;;;;;5050850;28;20033;-55
2021/07/31 04:26:53;;;;;;;3.97;1.50;;;24.30;54.60;;;;;;5051688;28;20025;-46
2021/07/31 04:29:18;;;;;;;6.28;1.30;;;24.30;54.50;;;;;;5059302;28;20103;-46
2021/07/31 04:31:45;;;;;;;3.20;1.23;;;24.30;54.60;;;;;;5070377;28;20112;-49
2021/07/31 04:34:11;;;;;;;2.67;1.50;;;24.30;54.60;;;;;;5071092;28;20028;-46
2021/07/31 04:36:37;;;;;;;3.33;1.38;;;24.30;54.40;;;;;;5063715;28;20033;-46
2021/07/31 04:39:03;;;;;;;3.25;1.20;;;24.30;54.20;;;;;;5056158;28;20489;-46
2021/07/31 04:41:30;;;;;;;4.07;1.75;;;24.30;54.10;;;;;;5070525;28;20444;-46
2021/07/31 04:43:55;;;;;;;5.32;1.55;;;24.30;54.00;;;;;;5070972;28;20043;-46
2021/07/31 04:46:21;;;;;;;2.00;1.20;;;24.30;53.90;;;;;;5074556;28;20028;-47
2021/07/31 04:48:46;;;;;;;6.13;1.52;;;24.30;53.70;;;;;;5072813;28;20488;-45
2021/07/31 04:51:13;;;;;;;3.15;1.27;;;24.30;53.90;;;;;;5073759;28;20546;-46
2021/07/31 04:53:39;;;;;;;1.83;1.30;;;24.30;53.70;;;;;;5073813;28;20052;-46
2021/07/31 04:56:05;;;;;;;4.78;1.40;;;24.20;53.70;;;;;;5074802;28;20067;-46
2021/07/31 04:58:30;;;;;;;3.40;1.23;;;24.30;53.60;;;;;;5073477;28;20056;-46
2021/07/31 05:00:59;;;;;;;2.67;1.33;;;24.30;53.60;;;;;;5056417;28;20486;-46
2021/07/31 05:03:25;;;;;;;7.15;1.08;;;24.30;53.60;;;;;;5055037;28;20037;-55
2021/07/31 05:05:51;;;;;;;4.60;1.40;;;24.30;53.70;;;;;;5052175;28;20025;-47
2021/07/31 05:08:17;;;;;;;3.15;1.23;;;24.30;53.60;;;;;;5055830;28;20053;-46
2021/07/31 05:10:47;;;;;;;2.83;1.00;;;24.20;53.50;;;;;;5055560;28;20446;-47
2021/07/31 05:13:13;;;;;;;3.65;1.10;;;23.80;51.50;;;;;;5054563;28;20078;-46
2021/07/31 05:15:41;;;;;;;7.85;1.20;;;22.80;53.70;;;;;;5053431;28;20044;-46
2021/07/31 05:18:08;;;;;;;3.88;1.05;;;22.30;53.90;;;;;;5064189;28;20036;-46
2021/07/31 05:20:37;;;;;;;4.63;1.20;;;22.10;54.20;;;;;;5058512;28;20104;-48
2021/07/31 05:23:03;;;;;;;5.93;0.90;;;22.00;53.80;;;;;;5053475;28;20119;-47
2021/07/31 05:25:28;;;;;;;4.13;1.00;;;22.00;54.30;;;;;;5053632;28;20159;-54
2021/07/31 05:27:54;;;;;;;4.00;1.00;;;22.00;54.60;;;;;;5054342;28;20029;-48
2021/07/31 05:30:20;;;;;;;5.68;1.85;;;22.00;54.50;;;;;;5065193;28;20028;-46
2021/07/31 05:32:46;;;;;;;5.20;1.10;;;21.90;55.10;;;;;;5073447;28;20484;-45
2021/07/31 05:35:12;;;;;;;3.70;1.27;;;21.80;55.00;;;;;;5063208;28;20021;-46
2021/07/31 05:37:37;;;;;;;8.48;1.60;;;21.80;54.70;;;;;;5072683;28;20032;-46
2021/07/31 05:40:03;;;;;;;4.15;1.52;;;21.80;55.60;;;;;;5064218;28;20025;-46
2021/07/31 05:42:29;;;;;;;3.25;1.23;;;21.70;55.20;;;;;;5052464;28;20469;-54
2021/07/31 05:45:03;;;;;;;3.22;1.40;;;21.60;55.00;;;;;;5055913;28;20051;-46
2021/07/31 05:47:29;;;;;;;2.28;1.20;;;21.70;55.20;;;;;;5073314;28;20025;-54
2021/07/31 05:49:56;;;;;;;5.45;1.02;;;21.70;55.00;;;;;;5065142;28;20033;-45
2021/07/31 05:52:25;;;;;;;6.22;1.30;;;21.80;54.90;;;;;;5053251;28;20120;-48
2021/07/31 05:54:52;;;;;;;3.88;1.30;;;21.90;54.60;;;;;;5052851;28;20025;-45
2021/07/31 05:57:17;;;;;;;1.98;1.10;;;21.90;54.30;;;;;;5052566;28;20024;-45
2021/07/31 05:59:43;;;;;;;5.28;2.00;;;21.90;54.20;;;;;;5052260;28;20438;-45
2021/07/31 06:02:10;;;;;;;3.28;1.15;;;22.00;53.90;;;;;;5071379;28;20112;-46
2021/07/31 06:04:36;;;;;;;3.72;1.10;;;22.00;54.50;;;;;;5036387;28;20124;-46
2021/07/31 06:07:04;;;;;;;5.07;0.95;;;21.90;54.10;;;;;;5065637;28;20031;-49
2021/07/31 06:09:29;;;;;;;5.28;1.40;;;21.90;53.80;;;;;;5069373;28;20031;-54
2021/07/31 06:11:55;;;;;;;4.60;1.15;;;21.90;54.10;;;;;;5067200;28;20017;-46
2021/07/31 06:14:20;;;;;;;2.85;1.00;;;21.90;54.40;;;;;;5057988;28;20509;-47
2021/07/31 06:16:46;;;;;;;4.00;1.67;;;22.00;54.70;;;;;;5072114;28;20048;-49
2021/07/31 06:19:12;;;;;;;5.32;1.25;;;21.90;55.10;;;;;;5073362;28;20458;-46
2021/07/31 06:21:37;;;;;;;5.85;1.30;;;22.00;55.30;;;;;;5072055;28;20029;-49
2021/07/31 06:24:03;;;;;;;4.85;1.30;;;22.00;55.50;;;;;;5072538;28;20063;-46
2021/07/31 06:26:29;;;;;;;3.35;1.17;;;22.10;55.70;;;;;;5072694;28;20438;-54
2021/07/31 06:28:55;;;;;;;6.43;1.55;;;22.20;55.70;;;;;;5072475;28;20133;-46
2021/07/31 06:31:20;;;;;;;2.92;1.33;;;22.20;55.10;;;;;;5072753;28;20028;-47
2021/07/31 06:33:46;;;;;;;2.47;1.13;;;22.00;55.20;;;;;;5071724;28;20028;-45
2021/07/31 06:36:12;;;;;;;4.88;1.45;;;22.10;55.60;;;;;;5063081;28;20488;-46
2021/07/31 06:38:37;;;;;;;4.25;1.20;;;22.10;55.40;;;;;;5071621;28;20025;-45
2021/07/31 06:41:05;;;;;;;4.95;1.42;;;22.10;54.90;;;;;;5055768;28;20460;-48
2021/07/31 06:43:31;;;;;;;3.17;1.30;;;21.90;55.00;;;;;;5052483;28;20047;-54
2021/07/31 06:45:56;;;;;;;3.25;1.30;;;22.00;55.10;;;;;;5052097;28;20021;-45
2021/07/31 06:48:22;;;;;;;4.72;1.30;;;22.10;55.00;;;;;;5052325;28;20049;-43
2021/07/31 06:50:47;;;;;;;2.40;1.13;;;22.10;54.50;;;;;;5066656;28;20094;-45
2021/07/31 06:53:13;;;;;;;6.60;1.60;;;22.10;54.30;;;;;;5072325;28;20074;-45
2021/07/31 06:55:39;;;;;;;6.47;1.60;;;21.90;54.20;;;;;;5071702;28;20378;-45
2021/07/31 06:58:04;;;;;;;5.07;1.52;;;21.70;53.80;;;;;;5072121;28;20401;-46
2021/07/31 07:00:30;;;;;;;4.20;0.82;;;22.00;53.70;;;;;;5058163;28;20067;-47
2021/07/31 07:02:55;;;;;;;4.93;1.55;;;22.20;53.40;;;;;;5050574;28;20382;-44
2021/07/31 07:05:21;;;;;;;4.35;1.35;;;22.40;53.30;;;;;;5054097;28;20048;-45
2021/07/31 07:07:47;;;;;;;6.65;1.15;;;22.40;52.60;;;;;;5056048;28;20033;-45
2021/07/31 07:10:13;;;;;;;3.30;0.95;;;22.30;52.80;;;;;;5052509;28;20039;-49
2021/07/31 07:12:38;;;;;;;3.35;1.27;;;22.40;52.40;;;;;;5070056;28;20369;-51
2021/07/31 07:15:05;;;;;;;3.90;0.90;;;22.40;51.70;;;;;;5072009;28;20033;-46
2021/07/31 07:17:30;;;;;;;5.07;1.50;;;22.20;52.50;;;;;;5071508;28;20024;-53
2021/07/31 07:19:56;;;;;;;3.17;1.17;;;22.20;52.00;;;;;;5053787;28;20028;-51
2021/07/31 07:22:21;;;;;;;8.23;1.45;;;22.40;52.00;;;;;;5051942;28;20458;-47
2021/07/31 07:24:47;;;;;;;6.28;0.90;;;22.30;51.90;;;;;;5050991;28;20029;-49
2021/07/31 07:27:13;;;;;;;4.70;1.17;;;22.30;51.80;;;;;;5051985;28;20055;-47
2021/07/31 07:29:38;;;;;;;5.68;1.40;;;22.40;51.80;;;;;;5065915;28;20121;-47
2021/07/31 07:32:06;;;;;;;5.20;1.40;;;22.50;51.80;;;;;;5057162;28;20037;-45
2021/07/31 07:34:31;;;;;;;3.78;1.20;;;22.40;51.90;;;;;;5051450;28;20037;-55
2021/07/31 07:36:57;;;;;;;7.45;1.60;;;22.20;52.40;;;;;;5066478;28;20458;-46
2021/07/31 07:39:22;;;;;;;9.02;1.13;;;22.40;52.40;;;;;;5071488;28;20024;-49
2021/07/31 07:41:48;;;;;;;3.60;1.15;;;22.60;52.20;;;;;;5058616;28;20104;-47
2021/07/31 07:44:14;;;;;;;7.18;1.73;;;22.60;51.90;;;;;;5051793;28;20531;-46
2021/07/31 07:46:39;;;;;;;4.55;1.15;;;22.90;51.90;;;;;;5049487;28;20047;-46
2021/07/31 07:49:05;;;;;;;5.00;1.50;;;22.90;51.70;;;;;;5051281;28;20032;-46
2021/07/31 07:51:31;;;;;;;6.43;1.23;;;22.90;51.50;;;;;;5061226;28;20016;-45
2021/07/31 07:53:56;;;;;;;4.55;1.10;;;22.90;51.50;;;;;;5070191;28;20410;-46
2021/07/31 07:56:22;;;;;;;4.70;1.20;;;23.00;50.90;;;;;;5071695;28;20036;-48
2021/07/31 07:58:53;;;;;;;3.67;1.25;;;22.30;51.00;;;;;;5068272;28;20032;-49
2021/07/31 08:01:18;;;;;;;6.82;1.73;;;22.20;52.00;;;;;;5047037;28;20474;-50
2021/07/31 08:03:44;;;;;;;3.15;1.17;;;22.10;52.60;;;;;;5070561;28;20045;-50
2021/07/31 08:06:15;;;;;;;3.20;1.10;;;22.10;52.90;;;;;;5066011;28;20024;-47
2021/07/31 08:08:41;;;;;;;4.40;1.30;;;22.30;52.10;;;;;;5049904;28;20494;-50
2021/07/31 08:11:08;;;;;;;4.75;1.00;;;22.20;51.40;;;;;;5052812;28;20064;-53
2021/07/31 08:13:34;;;;;;;5.30;1.25;;;22.20;51.10;;;;;;5051153;28;20029;-54
2021/07/31 08:15:59;;;;;;;5.43;1.00;;;22.50;51.10;;;;;;5051326;28;20044;-51
2021/07/31 08:18:25;;;;;;;5.00;1.38;;;22.60;50.80;;;;;;5051547;28;20029;-50
2021/07/31 08:20:51;;;;;;;4.88;1.67;;;22.50;51.40;;;;;;5057242;28;20052;-51
2021/07/31 08:23:16;;;;;;;8.80;1.58;;;22.30;51.20;;;;;;5076554;28;20128;-51
2021/07/31 08:25:42;;;;;;;5.03;1.20;;;22.40;51.20;;;;;;5073011;28;20082;-48
2021/07/31 08:28:08;;;;;;;4.50;1.50;;;22.70;51.00;;;;;;5074507;28;20031;-51
2021/07/31 08:30:33;;;;;;;3.15;0.90;;;22.90;50.80;;;;;;5073712;28;20082;-52
2021/07/31 08:32:59;;;;;;;3.63;1.20;;;23.00;50.30;;;;;;5054671;28;20040;-48
2021/07/31 08:35:25;;;;;;;3.70;1.50;;;23.00;50.20;;;;;;5057494;28;20469;-47
2021/07/31 08:37:50;;;;;;;5.43;1.52;;;22.90;50.00;;;;;;5057602;28;20057;-48
2021/07/31 08:40:16;;;;;;;6.15;1.33;;;23.00;50.70;;;;;;5068310;28;20025;-51
2021/07/31 08:42:42;;;;;;;3.53;1.13;;;23.00;49.70;;;;;;5055461;28;20029;-49
2021/07/31 08:45:12;;;;;;;5.80;1.25;;;23.10;49.20;;;;;;5066323;28;20401;-52
2021/07/31 08:47:39;;;;;;;3.15;1.00;;;22.80;50.20;;;;;;5073677;28;20378;-49
2021/07/31 08:50:06;;;;;;;3.08;1.30;;;22.90;49.90;;;;;;5074915;28;20108;-49
2021/07/31 08:52:33;;;;;;;2.95;1.30;;;22.90;50.00;;;;;;5057917;28;20036;-50
2021/07/31 08:54:59;;;;;;;3.78;1.35;;;23.00;50.10;;;;;;5054182;28;20120;-53
2021/07/31 08:57:25;;;;;;;3.22;1.45;;;22.90;50.10;;;;;;5074138;28;20062;-48
2021/07/31 08:59:53;;;;;;;2.25;0.95;;;22.90;50.10;;;;;;5073449;28;20045;-49
2021/07/31 09:02:19;;;;;;;5.13;1.35;;;22.90;50.20;;;;;;5059875;28;20033;-48
2021/07/31 09:04:45;;;;;;;4.53;1.23;;;23.00;49.90;;;;;;5053464;28;20385;-45
2021/07/31 09:07:14;;;;;;;3.45;1.33;;;23.20;49.60;;;;;;5070669;28;20029;-52
2021/07/31 09:09:40;;;;;;;4.93;1.48;;;23.20;49.80;;;;;;5061183;28;20448;-51
2021/07/31 09:12:08;;;;;;;5.90;1.20;;;23.30;50.10;;;;;;5053958;28;20033;-49
2021/07/31 09:14:43;;;;;;;3.60;1.88;;;23.20;49.30;;;;;;5034370;28;20034;-53
2021/07/31 09:17:23;;;;;;;4.40;1.40;;;23.10;49.90;;;;;;5034505;28;20486;-48
2021/07/31 09:19:49;;;;;;;3.38;0.88;;;23.00;49.90;;;;;;5033658;28;20030;-46
2021/07/31 09:22:15;;;;;;;1.27;1.00;;;23.00;49.90;;;;;;5051492;28;20040;-47
2021/07/31 09:24:40;;;;;;;4.32;1.30;;;23.00;50.00;;;;;;5053482;28;20060;-49
2021/07/31 09:27:24;;;;;;;4.22;1.05;;;22.90;49.50;;;;;;5052484;28;20025;-47
2021/07/31 09:30:00;;;;;;;4.55;0.82;;;23.00;50.10;;;;;;5052611;28;20038;-46
2021/07/31 09:32:39;;;;;;;3.95;1.38;;;23.30;49.70;;;;;;5070580;28;20409;-47
2021/07/31 09:35:22;;;;;;;2.42;1.08;;;23.50;49.70;;;;;;5073377;28;20541;-46
2021/07/31 09:37:49;;;;;;;5.05;1.10;;;23.70;49.70;;;;;;5072682;28;20436;-45
2021/07/31 09:40:30;;;;;;;3.65;1.20;;;23.80;49.80;;;;;;5073854;28;20028;-46
2021/07/31 09:43:10;;;;;;;5.37;1.47;;;23.80;49.60;;;;;;5070848;28;20106;-45
2021/07/31 09:45:35;;;;;;;3.05;1.40;;;23.80;49.70;;;;;;5073878;28;20748;-53
2021/07/31 09:48:05;;;;;;;2.78;1.13;;;23.80;49.50;;;;;;5073140;28;20059;-45
2021/07/31 09:50:42;;;;;;;2.33;0.90;;;23.80;49.60;;;;;;5062157;28;20040;-46
2021/07/31 09:53:21;;;;;;;4.25;1.15;;;23.80;49.90;;;;;;5073589;28;20056;-45
2021/07/31 09:55:58;;;;;;;7.63;1.35;;;23.70;50.00;;;;;;5072901;28;20029;-45
2021/07/31 09:58:26;;;;;;;1.92;0.98;;;23.70;50.00;;;;;;5073433;28;20025;-45
2021/07/31 10:00:53;;;;;;;3.70;1.25;;;23.70;50.10;;;;;;5070629;28;20527;-45
2021/07/31 10:03:20;;;;;;;2.83;0.98;;;23.70;49.80;;;;;;5073259;28;20040;-45
2021/07/31 10:05:45;;;;;;;3.13;1.27;;;23.80;50.00;;;;;;5071474;28;20418;-47
2021/07/31 10:08:12;;;;;;;2.75;1.10;;;23.80;50.10;;;;;;5073901;28;20108;-45
2021/07/31 10:10:38;;;;;;;3.72;1.52;;;23.80;50.40;;;;;;5053934;28;20487;-54
2021/07/31 10:13:04;;;;;;;2.80;1.33;;;23.80;50.00;;;;;;5072915;28;20552;-45
2021/07/31 10:15:31;;;;;;;3.35;1.10;;;23.80;50.20;;;;;;5073265;28;20108;-46
2021/07/31 10:17:58;;;;;;;3.63;1.10;;;23.80;50.40;;;;;;5067639;28;20584;-46
2021/07/31 10:20:27;;;;;;;3.25;1.08;;;23.80;50.10;;;;;;5053228;28;20029;-45
2021/07/31 10:22:53;;;;;;;2.95;1.05;;;23.80;49.80;;;;;;5052401;28;20039;-46
2021/07/31 10:25:20;;;;;;;4.13;1.05;;;23.80;49.60;;;;;;5053184;28;20029;-46
2021/07/31 10:27:46;;;;;;;3.60;1.17;;;23.80;49.80;;;;;;5052182;28;20025;-50
2021/07/31 10:30:38;;;;;;;6.28;2.38;;;23.80;49.50;;;;;;5052908;28;20432;-46
2021/07/31 10:33:06;;;;;;;4.03;1.00;;;23.80;48.80;;;;;;5072989;28;20056;-45
2021/07/31 10:35:35;;;;;;;1.65;0.80;;;23.80;48.30;;;;;;5072901;28;20039;-45
2021/07/31 10:38:07;;;;;;;3.78;1.00;;;23.90;48.60;;;;;;5072097;28;20115;-47
2021/07/31 10:40:40;;;;;;;6.30;1.17;;;23.90;48.40;;;;;;5072778;28;20024;-45
2021/07/31 10:43:09;;;;;;;4.18;1.48;;;23.90;48.20;;;;;;5032162;28;20026;-48
2021/07/31 10:45:35;;;;;;;3.30;1.08;;;24.00;48.60;;;;;;5032743;28;20037;-47
2021/07/31 10:48:03;;;;;;;2.55;1.25;;;24.00;48.10;;;;;;5071075;28;20082;-45
2021/07/31 10:50:29;;;;;;;1.98;0.88;;;23.90;48.30;;;;;;5072338;28;20031;-45
2021/07/31 10:53:00;;;;;;;2.53;0.93;;;23.90;48.50;;;;;;5053240;28;20037;-45
2021/07/31 10:55:46;;;;;;;2.58;1.00;;;23.90;48.50;;;;;;5052671;28;20474;-45
2021/07/31 10:58:17;;;;;;;2.75;1.10;;;23.90;47.60;;;;;;5051187;28;20475;-45
2021/07/31 11:00:45;;;;;;;3.08;1.10;;;24.00;46.80;;;;;;5051116;28;20068;-47
2021/07/31 11:03:23;;;;;;;2.85;1.17;;;24.00;46.90;;;;;;5032245;28;20608;-46
2021/07/31 11:05:49;;;;;;;2.58;1.80;;;24.00;46.80;;;;;;5049528;28;20025;-52
2021/07/31 11:08:16;;;;;;;2.50;0.95;;;24.00;47.70;;;;;;5052415;28;20155;-46
2021/07/31 11:10:42;;;;;;;2.58;1.15;;;24.00;47.60;;;;;;5051249;28;20025;-56
2021/07/31 11:13:32;;;;;;;2.20;0.82;;;24.00;47.90;;;;;;5063146;28;20025;-46
2021/07/31 11:16:04;;;;;;;2.88;0.82;;;24.00;47.20;;;;;;5050929;28;20029;-46
2021/07/31 11:18:39;;;;;;;1.63;0.80;;;24.00;46.80;;;;;;5052381;28;20107;-47
2021/07/31 11:21:15;;;;;;;1.35;0.70;;;24.00;46.60;;;;;;5053446;28;20471;-52
2021/07/31 11:23:47;;;;;;;3.05;1.00;;;24.00;46.60;;;;;;5062221;28;20482;-53
2021/07/31 11:26:29;;;;;;;3.05;1.10;;;24.10;46.60;;;;;;5052276;28;20029;-47
2021/07/31 11:28:55;;;;;;;3.08;1.00;;;24.00;46.10;;;;;;5051006;28;20455;-48
2021/07/31 11:31:21;;;;;;;2.97;1.10;;;24.10;46.90;;;;;;5051775;28;20033;-48
2021/07/31 11:34:06;;;;;;;3.28;0.88;;;24.00;47.00;;;;;;5058781;28;20036;-50
2021/07/31 11:36:32;;;;;;;2.88;1.10;;;24.10;47.00;;;;;;5047418;28;20095;-47
2021/07/31 11:38:59;;;;;;;2.92;1.30;;;24.10;47.10;;;;;;5051164;28;20033;-47
2021/07/31 11:41:25;;;;;;;4.88;1.35;;;24.10;47.20;;;;;;5059636;28;20027;-47
2021/07/31 11:43:53;;;;;;;3.47;1.20;;;24.10;46.90;;;;;;5061268;28;20500;-47
2021/07/31 11:46:41;;;;;;;3.95;1.00;;;24.10;46.70;;;;;;5051544;28;20029;-47
2021/07/31 11:49:09;;;;;;;2.40;1.00;;;24.20;47.00;;;;;;5051561;28;20060;-49
2021/07/31 11:51:44;;;;;;;2.42;0.80;;;24.20;47.10;;;;;;5060878;28;20039;-46
2021/07/31 11:54:10;;;;;;;1.55;0.90;;;24.20;47.10;;;;;;5059916;28;20041;-50
2021/07/31 11:56:38;;;;;;;5.70;1.20;;;24.30;47.20;;;;;;5055845;28;20021;-52
2021/07/31 11:59:05;;;;;;;2.53;1.25;;;24.20;47.50;;;;;;5054518;28;20061;-49
2021/07/31 12:01:32;;;;;;;1.95;0.90;;;24.20;47.40;;;;;;5058788;28;20087;-48
2021/07/31 12:03:57;;;;;;;2.75;1.35;;;24.20;47.70;;;;;;5068316;28;20040;-50
2021/07/31 12:06:29;;;;;;;2.33;1.10;;;24.20;47.60;;;;;;5075672;28;20382;-51
2021/07/31 12:08:59;;;;;;;2.85;1.20;;;24.20;47.70;;;;;;5072546;28;20029;-47
2021/07/31 12:11:40;;;;;;;2.47;1.20;;;24.20;47.10;;;;;;5075427;28;20028;-49
2021/07/31 12:14:34;;;;;;;2.35;0.98;;;24.20;47.10;;;;;;5060213;28;20041;-49
2021/07/31 12:17:21;;;;;;;1.98;0.80;;;24.30;47.40;;;;;;5054601;28;20033;-47
2021/07/31 12:19:46;;;;;;;3.67;0.93;;;24.30;47.20;;;;;;5054672;28;20025;-48
2021/07/31 12:22:15;;;;;;;2.33;1.38;;;24.30;47.20;;;;;;5040659;28;20036;-47
2021/07/31 12:24:42;;;;;;;3.53;1.15;;;24.20;46.90;;;;;;5054032;28;20041;-57
2021/07/31 12:27:07;;;;;;;3.78;1.25;;;24.20;46.80;;;;;;5054984;28;20029;-49
2021/07/31 12:29:38;;;;;;;2.22;1.13;;;24.30;46.80;;;;;;5055491;28;20035;-50
2021/07/31 12:32:26;;;;;;;2.33;0.98;;;24.30;47.20;;;;;;5054083;28;20079;-46
2021/07/31 12:34:54;;;;;;;1.77;0.90;;;24.40;47.10;;;;;;5050669;28;20046;-49
2021/07/31 12:37:21;;;;;;;2.13;1.13;;;24.40;46.80;;;;;;5070946;28;20029;-49
2021/07/31 12:39:49;;;;;;;2.30;1.00;;;24.40;46.80;;;;;;5054360;28;20017;-51
2021/07/31 12:42:15;;;;;;;2.03;1.00;;;24.50;47.40;;;;;;5054962;28;20052;-50
2021/07/31 12:44:41;;;;;;;2.17;1.10;;;24.40;47.10;;;;;;5073602;28;20036;-47
2021/07/31 12:47:10;;;;;;;3.10;1.33;;;24.50;46.90;;;;;;5074048;28;20476;-47
2021/07/31 12:49:36;;;;;;;2.08;0.90;;;24.40;46.50;;;;;;5035105;28;20120;-46